createdAt,value
2023-04-14T00:00:00.465Z,99295.13
2023-04-14T00:02:27.723Z,99294.91
2023-04-14T00:04:55.125Z,99307.69
2023-04-14T00:07:22.245Z,99317.38
2023-04-14T00:09:49.355Z,99332.31
2023-04-14T00:12:16.429Z,99326.72
2023-04-14T00:14:43.703Z,99330.38
2023-04-14T00:17:11.608Z,99323.81
2023-04-14T00:19:38.759Z,99337.00
2023-04-14T00:22:05.998Z,99342.88
2023-04-14T00:24:33.091Z,99355.91
2023-04-14T00:27:01.238Z,99362.91
2023-04-14T00:29:28.289Z,99368.53
2023-04-14T00:31:55.325Z,99371.91
2023-04-14T00:34:22.425Z,99367.41
2023-04-14T00:36:49.477Z,99370.78
2023-04-14T00:39:16.828Z,99364.75
2023-04-14T00:41:44.010Z,99366.84
2023-04-14T00:44:11.128Z,99370.22
2023-04-14T00:46:39.710Z,99349.88
2023-04-14T00:49:07.043Z,99355.06
2023-04-14T00:51:34.366Z,99338.84
2023-04-14T00:54:07.150Z,99317.25
2023-04-14T00:56:34.477Z,99252.19
2023-04-14T00:59:02.391Z,99269.84
2023-04-14T01:01:29.877Z,99252.88
2023-04-14T01:04:00.058Z,99264.97
2023-04-14T01:06:28.176Z,99254.59
2023-04-14T01:08:55.248Z,99255.59
2023-04-14T01:11:36.659Z,99254.50
2023-04-14T01:14:22.695Z,99253.91
2023-04-14T01:16:51.702Z,99244.56
2023-04-14T01:19:24.856Z,99259.84
2023-04-14T01:21:54.396Z,99245.84
2023-04-14T01:24:26.002Z,99251.47
2023-04-14T01:27:01.891Z,99244.47
2023-04-14T01:29:47.763Z,99245.16
2023-04-14T01:32:18.213Z,99236.63
2023-04-14T01:34:56.684Z,99249.09
2023-04-14T01:37:36.772Z,99239.88
2023-04-14T01:40:11.642Z,99242.00
2023-04-14T01:42:40.343Z,99248.16
2023-04-14T01:45:11.968Z,99257.38
2023-04-14T01:47:42.044Z,99251.50
2023-04-14T01:50:10.433Z,99252.94
2023-04-14T01:52:38.428Z,99270.31
2023-04-14T01:55:07.097Z,99258.53
2023-04-14T01:57:35.801Z,99252.78
2023-04-14T02:00:05.082Z,99249.56
2023-04-14T02:02:42.961Z,99266.38
2023-04-14T02:05:11.359Z,99282.94
2023-04-14T02:07:39.094Z,99286.72
2023-04-14T02:10:08.144Z,99296.13
2023-04-14T02:12:36.273Z,99297.22
2023-04-14T02:15:03.881Z,99306.19
2023-04-14T02:17:31.014Z,99324.81
2023-04-14T02:19:59.459Z,99328.06
2023-04-14T02:22:26.721Z,99319.66
2023-04-14T02:24:55.234Z,99332.69
2023-04-14T02:27:45.356Z,99325.97
2023-04-14T02:30:14.677Z,99307.47
2023-04-14T02:32:44.914Z,99339.81
2023-04-14T02:35:22.019Z,99335.91
2023-04-14T02:37:50.644Z,99342.91
2023-04-14T02:40:20.834Z,99358.59
2023-04-14T02:42:50.893Z,99349.78
2023-04-14T02:45:26.614Z,99341.81
2023-04-14T02:47:55.380Z,99330.03
2023-04-14T02:50:23.672Z,99352.44
2023-04-14T02:53:02.371Z,99329.91
2023-04-14T02:55:34.769Z,99335.34
2023-04-14T02:58:02.576Z,99336.63
2023-04-14T03:00:32.914Z,99341.25
2023-04-14T03:03:01.239Z,99344.34
2023-04-14T03:05:29.763Z,99335.94
2023-04-14T03:08:05.461Z,99332.72
2023-04-14T03:10:33.043Z,99345.72
2023-04-14T03:13:01.844Z,99343.78
2023-04-14T03:15:30.337Z,99336.25
2023-04-14T03:17:58.746Z,99337.75
2023-04-14T03:20:27.273Z,99335.41
2023-04-14T03:23:05.453Z,99331.19
2023-04-14T03:25:39.974Z,99325.16
2023-04-14T03:28:14.871Z,99332.34
2023-04-14T03:30:46.259Z,99342.81
2023-04-14T03:33:18.082Z,99344.66
2023-04-14T03:35:46.683Z,99349.16
2023-04-14T03:38:15.703Z,99361.72
2023-04-14T03:40:46.320Z,99361.44
2023-04-14T03:43:19.973Z,99349.16
2023-04-14T03:45:49.183Z,99343.81
2023-04-14T03:48:18.512Z,99348.69
2023-04-14T03:50:51.786Z,99336.50
2023-04-14T03:53:21.270Z,99349.00
2023-04-14T03:55:51.512Z,99338.38
2023-04-14T03:58:20.186Z,99345.19
2023-04-14T04:00:49.284Z,99335.28
2023-04-14T04:03:18.165Z,99339.75
2023-04-14T04:05:46.163Z,99354.03
2023-04-14T04:08:14.452Z,99371.00
2023-04-14T04:10:42.820Z,99364.84
2023-04-14T04:13:12.745Z,99363.00
2023-04-14T04:15:42.163Z,99364.25
2023-04-14T04:18:11.228Z,99375.59
2023-04-14T04:20:40.736Z,99368.59
2023-04-14T04:23:09.111Z,99376.31
2023-04-14T04:25:37.625Z,99384.69
2023-04-14T04:28:17.005Z,99385.41
2023-04-14T04:30:45.513Z,99410.47
2023-04-14T04:33:15.616Z,99748.34
2023-04-14T04:35:43.030Z,99742.47
2023-04-14T04:38:11.450Z,99734.91
2023-04-14T04:40:41.544Z,99732.25
2023-04-14T04:43:23.100Z,99728.09
2023-04-14T04:46:11.905Z,99738.84
2023-04-14T04:48:39.108Z,99718.41
2023-04-14T04:51:06.330Z,99738.13
2023-04-14T04:53:33.552Z,99747.78
2023-04-14T04:56:01.305Z,99761.81
2023-04-14T04:58:28.421Z,99763.03
2023-04-14T05:00:55.525Z,99771.72
2023-04-14T05:03:22.752Z,99775.09
2023-04-14T05:05:49.862Z,99782.25
2023-04-14T05:08:16.941Z,99780.28
2023-04-14T05:10:44.259Z,99786.78
2023-04-14T05:13:11.378Z,99794.91
2023-04-14T05:15:38.489Z,99780.44
2023-04-14T05:18:05.759Z,99779.91
2023-04-14T05:20:34.809Z,99770.47
2023-04-14T05:23:02.613Z,99770.22
2023-04-14T05:25:29.782Z,99762.25
2023-04-14T05:27:56.965Z,99763.22
2023-04-14T05:30:24.091Z,99762.25
2023-04-14T05:32:51.329Z,99771.91
2023-04-14T05:35:18.395Z,99774.84
2023-04-14T05:37:45.462Z,99765.44
2023-04-14T05:40:12.716Z,99777.25
2023-04-14T05:42:41.857Z,99780.34
2023-04-14T05:45:09.644Z,99783.00
2023-04-14T05:47:37.354Z,99792.66
2023-04-14T05:50:04.636Z,99797.16
2023-04-14T05:52:31.714Z,99788.31
2023-04-14T05:54:58.763Z,99792.09
2023-04-14T05:57:25.870Z,99799.81
2023-04-14T05:59:52.954Z,99798.25
2023-04-14T06:02:20.164Z,99791.38
2023-04-14T06:04:47.815Z,99788.97
2023-04-14T06:07:15.202Z,99799.38
2023-04-14T06:09:42.780Z,99785.94
2023-04-14T06:12:09.868Z,99778.09
2023-04-14T06:14:36.895Z,99781.06
2023-04-14T06:17:04.108Z,99790.44
2023-04-14T06:19:31.237Z,99788.75
2023-04-14T06:21:58.311Z,99784.28
2023-04-14T06:24:25.513Z,99790.44
2023-04-14T06:26:52.652Z,99785.84
2023-04-14T06:29:19.785Z,99783.19
2023-04-14T06:31:46.999Z,99791.22
2023-04-14T06:34:14.057Z,99788.56
2023-04-14T06:36:41.433Z,99791.78
2023-04-14T06:39:08.651Z,99780.91
2023-04-14T06:41:35.715Z,99780.91
2023-04-14T06:44:04.725Z,99779.09
2023-04-14T06:46:35.927Z,99773.47
2023-04-14T06:49:03.949Z,99775.03
2023-04-14T06:51:32.507Z,99769.84
2023-04-14T06:53:59.707Z,99777.44
2023-04-14T06:56:26.948Z,99780.53
2023-04-14T06:58:54.080Z,99786.75
2023-04-14T07:01:39.837Z,99769.53
2023-04-14T07:04:25.806Z,99772.19
2023-04-14T07:06:52.897Z,99786.38
2023-04-14T07:09:20.887Z,99779.78
2023-04-14T07:11:48.004Z,99776.72
2023-04-14T07:14:15.335Z,99784.19
2023-04-14T07:16:42.368Z,99777.72
2023-04-14T07:19:09.509Z,99772.41
2023-04-14T07:21:37.640Z,99779.16
2023-04-14T07:24:05.622Z,99777.47
2023-04-14T07:26:32.733Z,99764.56
2023-04-14T07:28:59.849Z,99767.81
2023-04-14T07:31:27.050Z,99760.09
2023-04-14T07:33:54.256Z,99769.63
2023-04-14T07:36:21.598Z,99766.13
2023-04-14T07:38:52.121Z,99758.72
2023-04-14T07:41:19.655Z,99747.63
2023-04-14T07:43:46.965Z,99770.38
2023-04-14T07:46:14.134Z,99767.13
2023-04-14T07:48:41.672Z,99753.53
2023-04-14T07:51:08.835Z,99756.34
2023-04-14T07:53:40.488Z,99724.19
2023-04-14T07:56:08.151Z,99717.84
2023-04-14T07:58:35.340Z,99722.78
2023-04-14T08:01:02.994Z,99714.22
2023-04-14T08:03:30.502Z,99700.75
2023-04-14T08:05:57.864Z,99700.59
2023-04-14T08:08:25.077Z,99710.13
2023-04-14T08:10:52.280Z,99723.59
2023-04-14T08:13:19.376Z,99718.94
2023-04-14T08:15:46.487Z,99710.38
2023-04-14T08:18:13.577Z,99706.72
2023-04-14T08:20:41.614Z,99704.19
2023-04-14T08:23:08.691Z,99702.75
2023-04-14T08:25:35.886Z,99692.66
2023-04-14T08:28:02.952Z,99702.00
2023-04-14T08:30:30.024Z,99704.41
2023-04-14T08:32:58.977Z,99711.94
2023-04-14T08:35:35.317Z,99714.63
2023-04-14T08:38:08.016Z,99704.06
2023-04-14T08:40:39.289Z,99720.84
2023-04-14T08:43:06.493Z,99718.19
2023-04-14T08:45:33.922Z,99711.09
2023-04-14T08:48:02.287Z,99713.75
2023-04-14T08:50:32.741Z,99712.19
2023-04-14T08:53:02.061Z,99718.78
2023-04-14T08:55:29.605Z,99714.81
2023-04-14T08:57:57.746Z,99700.78
2023-04-14T09:00:25.457Z,99705.22
2023-04-14T09:02:52.922Z,99704.53
2023-04-14T09:05:20.577Z,99700.03
2023-04-14T09:07:47.997Z,99695.94
2023-04-14T09:10:15.370Z,99712.59
2023-04-14T09:12:42.631Z,99696.22
2023-04-14T09:15:10.128Z,99723.69
2023-04-14T09:17:37.665Z,99706.81
2023-04-14T09:20:36.125Z,99702.59
2023-04-14T09:22:53.210Z,99692.31
2023-04-14T09:25:21.081Z,99716.47
2023-04-14T09:27:49.113Z,99710.41
2023-04-14T09:30:17.671Z,99712.34
2023-04-14T09:32:47.580Z,99718.75
2023-04-14T09:35:16.133Z,99702.25
2023-04-14T09:37:44.572Z,99704.91
2023-04-14T09:40:26.737Z,99704.63
2023-04-14T09:42:54.174Z,99695.06
2023-04-14T09:45:22.672Z,99705.97
2023-04-14T09:48:06.064Z,99706.53
2023-04-14T09:50:33.612Z,99708.84
2023-04-14T09:53:04.169Z,99710.16
2023-04-14T09:55:31.421Z,99714.63
2023-04-14T09:57:58.585Z,99700.56
2023-04-14T10:00:25.703Z,99706.88
2023-04-14T10:02:59.075Z,99683.03
2023-04-14T10:05:32.187Z,99675.84
2023-04-14T10:08:02.517Z,99685.03
2023-04-14T10:10:29.745Z,99691.75
2023-04-14T10:12:57.056Z,99691.75
2023-04-14T10:15:24.616Z,99691.31
2023-04-14T10:17:51.826Z,99698.63
2023-04-14T10:20:19.471Z,99707.19
2023-04-14T10:22:47.587Z,99707.34
2023-04-14T10:25:15.224Z,99700.94
2023-04-14T10:27:43.110Z,99672.94
2023-04-14T10:30:10.432Z,99693.09
2023-04-14T10:32:40.501Z,99696.78
2023-04-14T10:35:11.626Z,99688.22
2023-04-14T10:37:38.838Z,99690.94
2023-04-14T10:40:07.242Z,99698.16
2023-04-14T10:42:53.454Z,99678.53
2023-04-14T10:45:20.681Z,99674.53
2023-04-14T10:47:47.952Z,99690.72
2023-04-14T10:50:19.219Z,99691.34
2023-04-14T10:52:50.701Z,99694.75
2023-04-14T10:55:21.180Z,99687.09
2023-04-14T10:57:48.421Z,99683.41
2023-04-14T11:00:25.117Z,99689.41
2023-04-14T11:02:55.592Z,99658.44
2023-04-14T11:05:22.862Z,99643.81
2023-04-14T11:07:54.479Z,99629.22
2023-04-14T11:10:21.652Z,99613.13
2023-04-14T11:12:49.682Z,99612.47
2023-04-14T11:15:17.056Z,99632.09
2023-04-14T11:17:44.929Z,99616.00
2023-04-14T11:20:19.235Z,99605.97
2023-04-14T11:22:50.829Z,99583.66
2023-04-14T11:25:22.197Z,99562.53
2023-04-14T11:27:51.832Z,99554.31
2023-04-14T11:30:19.631Z,99517.78
2023-04-14T11:32:54.070Z,99538.88
2023-04-14T11:35:23.398Z,99504.03
2023-04-14T11:37:52.809Z,99472.50
2023-04-14T11:40:19.936Z,99439.03
2023-04-14T11:42:51.531Z,99456.88
2023-04-14T11:45:18.736Z,99423.56
2023-04-14T11:48:02.402Z,99392.03
2023-04-14T11:50:31.289Z,99383.63
2023-04-14T11:53:02.953Z,99369.63
2023-04-14T11:55:30.728Z,99336.88
2023-04-14T11:57:58.137Z,99314.00
2023-04-14T12:00:27.515Z,99310.13
2023-04-14T12:02:55.206Z,99313.41
2023-04-14T12:05:30.228Z,99288.25
2023-04-14T12:08:01.680Z,99273.09
2023-04-14T12:10:29.155Z,99252.00
2023-04-14T12:13:14.090Z,99225.53
2023-04-14T12:15:42.161Z,99200.22
2023-04-14T12:18:10.622Z,99199.13
2023-04-14T12:20:42.943Z,99180.03
2023-04-14T12:23:10.129Z,99158.41
2023-04-14T12:25:37.208Z,99142.84
2023-04-14T12:28:07.401Z,99078.97
2023-04-14T12:30:35.915Z,99054.81
2023-04-14T12:33:10.609Z,99065.81
2023-04-14T12:35:38.834Z,99071.47
2023-04-14T12:38:12.655Z,99076.53
2023-04-14T12:40:40.610Z,99015.16
2023-04-14T12:43:07.824Z,98994.97
2023-04-14T12:45:41.926Z,98942.63
2023-04-14T12:48:09.124Z,98908.81
2023-04-14T12:50:36.308Z,98875.34
2023-04-14T12:53:22.287Z,98842.66
2023-04-14T12:56:03.242Z,98819.22
2023-04-14T12:58:30.438Z,98775.63
2023-04-14T13:00:57.657Z,98769.13
2023-04-14T13:03:24.908Z,98727.97
2023-04-14T13:05:52.714Z,98745.97
2023-04-14T13:08:19.849Z,98706.84
2023-04-14T13:10:47.115Z,98709.25
2023-04-14T13:13:14.176Z,98671.84
2023-04-14T13:16:12.665Z,98635.09
2023-04-14T13:18:28.519Z,98599.25
2023-04-14T13:20:56.176Z,98583.09
2023-04-14T13:23:23.656Z,98576.34
2023-04-14T13:25:50.737Z,98543.47
2023-04-14T13:28:17.826Z,98510.41
2023-04-14T13:30:46.032Z,98479.19
2023-04-14T13:33:13.264Z,98432.53
2023-04-14T13:35:40.449Z,98420.34
2023-04-14T13:38:07.500Z,98418.72
2023-04-14T13:40:34.697Z,98410.03
2023-04-14T13:43:01.852Z,98417.94
2023-04-14T13:45:29.774Z,98345.19
2023-04-14T13:47:56.881Z,98274.94
2023-04-14T13:50:24.257Z,98230.69
2023-04-14T13:52:54.620Z,98173.22
2023-04-14T13:55:21.706Z,98126.34
2023-04-14T13:57:49.684Z,98088.09
2023-04-14T14:00:17.005Z,98082.50
2023-04-14T14:02:44.123Z,97992.00
2023-04-14T14:05:11.768Z,97933.69
2023-04-14T14:07:38.857Z,97895.44
2023-04-14T14:10:08.743Z,97866.78
2023-04-14T14:12:36.495Z,97780.03
2023-04-14T14:15:04.862Z,97744.78
2023-04-14T14:17:32.123Z,97710.72
2023-04-14T14:19:59.472Z,97672.56
2023-04-14T14:22:26.612Z,97605.16
2023-04-14T14:25:10.891Z,97583.81
2023-04-14T14:27:42.677Z,97530.34
2023-04-14T14:30:09.983Z,97543.41
2023-04-14T14:32:37.186Z,97578.88
2023-04-14T14:35:04.452Z,97521.63
2023-04-14T14:37:31.495Z,97503.22
2023-04-14T14:39:58.557Z,97524.13
2023-04-14T14:42:26.938Z,97536.81
2023-04-14T14:44:54.322Z,97572.59
2023-04-14T14:47:21.619Z,97573.06
2023-04-14T14:49:57.200Z,97584.00
2023-04-14T14:52:33.629Z,97579.47
2023-04-14T14:55:01.131Z,97583.31
2023-04-14T14:57:28.683Z,97582.41
2023-04-14T14:59:55.940Z,97532.91
2023-04-14T15:02:23.172Z,97547.53
2023-04-14T15:04:50.390Z,97577.88
2023-04-14T15:07:17.694Z,97554.63
2023-04-14T15:09:48.839Z,97564.31
2023-04-14T15:12:16.293Z,97603.53
2023-04-14T15:14:44.094Z,97612.34
2023-04-14T15:17:11.169Z,97578.78
2023-04-14T15:19:38.269Z,97558.19
2023-04-14T15:22:05.460Z,97558.66
2023-04-14T15:24:32.567Z,97575.72
2023-04-14T15:26:59.616Z,97541.75
2023-04-14T15:29:26.884Z,97549.50
2023-04-14T15:31:54.009Z,97557.25
2023-04-14T15:34:21.430Z,97584.84
2023-04-14T15:36:48.826Z,97546.34
2023-04-14T15:39:15.905Z,97552.75
2023-04-14T15:41:43.366Z,97559.16
2023-04-14T15:44:10.431Z,97570.72
2023-04-14T15:46:37.505Z,97538.59
2023-04-14T15:49:04.619Z,97551.19
2023-04-14T15:51:31.951Z,97583.03
2023-04-14T15:53:59.018Z,97580.03
2023-04-14T15:56:27.096Z,97566.28
2023-04-14T15:58:54.168Z,97649.78
2023-04-14T16:01:21.307Z,97647.78
2023-04-14T16:03:50.403Z,97671.69
2023-04-14T16:06:19.116Z,97713.25
2023-04-14T16:08:46.285Z,97724.41
2023-04-14T16:11:14.124Z,97743.34
2023-04-14T16:13:41.471Z,97786.53
2023-04-14T16:16:08.578Z,97802.41
2023-04-14T16:18:36.737Z,97801.19
2023-04-14T16:21:03.854Z,97797.88
2023-04-14T16:23:30.916Z,97805.28
2023-04-14T16:25:57.992Z,97822.16
2023-04-14T16:28:25.799Z,97834.31
2023-04-14T16:30:53.666Z,97831.38
2023-04-14T16:33:21.229Z,97854.44
2023-04-14T16:35:48.343Z,97884.72
2023-04-14T16:38:15.464Z,97888.63
2023-04-14T16:40:42.786Z,97900.56
2023-04-14T16:43:10.257Z,97910.63
2023-04-14T16:45:37.338Z,97915.59
2023-04-14T16:48:04.441Z,97928.97
2023-04-14T16:50:32.172Z,97949.38
2023-04-14T16:52:59.385Z,97928.97
2023-04-14T16:55:26.487Z,97912.88
2023-04-14T16:57:53.605Z,97933.03
2023-04-14T17:00:21.208Z,97946.41
2023-04-14T17:02:48.426Z,97953.41
2023-04-14T17:05:16.449Z,97956.50
2023-04-14T17:07:43.825Z,97944.94
2023-04-14T17:10:11.386Z,97957.91
2023-04-14T17:12:38.731Z,97953.50
2023-04-14T17:15:06.730Z,97951.66
2023-04-14T17:17:33.935Z,97934.16
2023-04-14T17:20:01.057Z,97931.47
2023-04-14T17:22:28.170Z,97941.56
2023-04-14T17:24:55.745Z,97931.22
2023-04-14T17:27:22.901Z,97908.16
2023-04-14T17:29:49.954Z,97920.91
2023-04-14T17:32:18.495Z,97923.00
2023-04-14T17:34:47.716Z,97924.00
2023-04-14T17:37:15.170Z,97937.75
2023-04-14T17:39:43.230Z,97946.38
2023-04-14T17:42:11.323Z,97964.25
2023-04-14T17:44:38.388Z,97975.94
2023-04-14T17:47:12.956Z,97975.06
2023-04-14T17:49:40.024Z,97999.13
2023-04-14T17:52:17.064Z,98005.22
2023-04-14T17:54:46.005Z,98035.25
2023-04-14T17:57:13.449Z,98057.84
2023-04-14T17:59:41.516Z,98084.75
2023-04-14T18:02:09.649Z,98105.47
2023-04-14T18:04:36.707Z,98129.94
2023-04-14T18:07:04.620Z,98155.00
2023-04-14T18:09:31.888Z,98157.78
2023-04-14T18:11:59.076Z,98178.19
2023-04-14T18:14:26.611Z,98229.25
2023-04-14T18:16:54.784Z,98195.91
2023-04-14T18:19:23.035Z,98250.66
2023-04-14T18:21:50.354Z,98272.75
2023-04-14T18:26:47.518Z,98356.19
2023-04-14T18:29:14.566Z,98370.53
2023-04-14T18:31:42.631Z,98382.69
2023-04-14T18:34:10.393Z,98427.69
2023-04-14T18:36:38.023Z,98444.38
2023-04-14T18:39:05.168Z,98458.75
2023-04-14T18:41:32.258Z,98505.22
2023-04-14T18:43:59.968Z,98538.72
2023-04-14T18:46:27.608Z,98555.84
2023-04-14T18:48:55.368Z,98558.53
2023-04-14T18:51:22.454Z,98567.91
2023-04-14T18:53:49.576Z,98578.75
2023-04-14T18:56:16.716Z,98606.50
2023-04-14T18:58:43.770Z,98638.03
2023-04-14T19:01:10.983Z,98683.63
2023-04-14T19:03:38.572Z,98706.94
2023-04-14T19:06:05.629Z,98729.38
2023-04-14T19:08:32.685Z,98771.75
2023-04-14T19:10:59.705Z,98801.97
2023-04-14T19:13:27.304Z,98830.81
2023-04-14T19:16:03.733Z,98857.03
2023-04-14T19:18:31.073Z,98880.53
2023-04-14T19:20:58.119Z,98905.22
2023-04-14T19:23:25.163Z,98932.13
2023-04-14T19:25:53.530Z,98960.97
2023-04-14T19:28:21.763Z,98975.00
2023-04-14T19:30:49.099Z,98997.19
2023-04-14T19:33:16.174Z,99018.56
2023-04-14T19:35:44.822Z,99026.72
2023-04-14T19:38:12.062Z,99046.41
2023-04-14T19:40:39.365Z,99058.78
2023-04-14T19:43:06.956Z,99055.41
2023-04-14T19:45:34.052Z,99066.78
2023-04-14T19:48:05.319Z,99070.94
2023-04-14T19:50:48.046Z,99071.41
2023-04-14T19:53:15.286Z,99084.09
2023-04-14T19:55:48.598Z,99114.13
2023-04-14T19:58:15.718Z,99117.63
2023-04-14T20:00:42.774Z,99118.59
2023-04-14T20:03:09.921Z,99130.44
2023-04-14T20:05:37.270Z,99136.44
2023-04-14T20:08:04.931Z,99149.09
2023-04-14T20:10:32.656Z,99157.13
2023-04-14T20:13:00.114Z,99150.75
2023-04-14T20:15:27.187Z,99170.13
2023-04-14T20:17:54.323Z,99176.44
2023-04-14T20:20:21.995Z,99182.28
2023-04-14T20:22:49.477Z,99191.28
2023-04-14T20:25:17.861Z,99203.94
2023-04-14T20:27:45.155Z,99196.41
2023-04-14T20:30:12.730Z,99201.22
2023-04-14T20:32:39.899Z,99217.75
2023-04-14T20:35:07.191Z,99222.06
2023-04-14T20:37:34.296Z,99232.72
2023-04-14T20:40:01.373Z,99229.84
2023-04-14T20:42:29.234Z,99245.22
2023-04-14T20:44:56.247Z,99237.84
2023-04-14T20:47:23.661Z,99247.88
2023-04-14T20:49:50.932Z,99243.69
2023-04-14T20:52:18.008Z,99258.88
2023-04-14T20:54:45.414Z,99258.34
2023-04-14T20:57:12.570Z,99261.03
2023-04-14T20:59:39.601Z,99265.97
2023-04-14T21:02:07.038Z,99273.13
2023-04-14T21:04:35.875Z,99277.63
2023-04-14T21:07:03.656Z,99267.97
2023-04-14T21:09:30.908Z,99272.63
2023-04-14T21:12:14.483Z,99272.75
2023-04-14T21:15:31.268Z,99250.59
2023-04-14T21:17:31.175Z,99254.25
2023-04-14T21:19:58.233Z,99267.06
2023-04-14T21:22:25.331Z,99266.38
2023-04-14T21:24:52.428Z,99281.25
2023-04-14T21:27:19.558Z,99287.09
2023-04-14T21:29:46.718Z,99286.25
2023-04-14T21:32:14.061Z,99282.38
2023-04-14T21:34:41.606Z,99290.53
2023-04-14T21:37:08.702Z,99293.38
2023-04-14T21:39:36.273Z,99277.44
2023-04-14T21:42:03.826Z,99306.31
2023-04-14T21:44:30.925Z,99309.53
2023-04-14T21:46:57.961Z,99319.50
2023-04-14T21:49:25.143Z,99318.81
2023-04-14T21:51:52.534Z,99324.97
2023-04-14T21:54:19.897Z,99328.81
2023-04-14T21:56:47.106Z,99326.56
2023-04-14T21:59:14.189Z,99336.63
2023-04-14T22:01:42.748Z,99347.84
2023-04-14T22:04:12.792Z,99336.84
2023-04-14T22:06:44.146Z,99330.44
2023-04-14T22:09:11.252Z,99323.53
2023-04-14T22:11:38.655Z,99339.75
2023-04-14T22:14:05.879Z,99342.28
2023-04-14T22:16:34.706Z,99344.25
2023-04-14T22:19:03.717Z,99346.78
2023-04-14T22:21:30.984Z,99345.56
2023-04-14T22:23:58.536Z,99351.03
2023-04-14T22:26:25.599Z,99349.38
2023-04-14T22:28:52.769Z,99354.41
2023-04-14T22:31:19.889Z,99355.53
2023-04-14T22:33:46.934Z,99348.66
2023-04-14T22:36:14.001Z,99345.47
2023-04-14T22:38:42.391Z,99343.94
2023-04-14T22:41:09.484Z,99346.59
2023-04-14T22:43:36.513Z,99350.81
2023-04-14T22:46:03.625Z,99356.66
2023-04-14T22:48:30.990Z,99346.91
2023-04-14T22:50:58.135Z,99350.88
2023-04-14T22:53:25.250Z,99362.50
2023-04-14T22:55:52.290Z,99366.25
2023-04-14T22:58:20.237Z,99365.72
2023-04-14T23:00:47.781Z,99369.66
2023-04-14T23:03:15.535Z,99364.09
2023-04-14T23:05:42.977Z,99364.94
2023-04-14T23:08:10.278Z,99364.69
2023-04-14T23:10:37.417Z,99376.34
2023-04-14T23:13:04.432Z,99375.34
2023-04-14T23:15:31.631Z,99377.66
2023-04-14T23:17:58.748Z,99377.03
2023-04-14T23:20:25.912Z,99383.81
2023-04-14T23:22:52.971Z,99384.94
2023-04-14T23:25:19.982Z,99390.25
2023-04-14T23:27:47.058Z,99404.69
2023-04-14T23:30:14.216Z,99388.59
2023-04-14T23:32:41.370Z,99391.25
2023-04-14T23:35:08.678Z,99391.72
2023-04-14T23:37:35.732Z,99397.44
2023-04-14T23:40:04.330Z,99388.94
2023-04-14T23:42:31.533Z,99395.38
2023-04-14T23:44:58.786Z,99397.34
2023-04-14T23:47:26.133Z,99408.28
2023-04-14T23:49:53.183Z,99405.75
2023-04-14T23:52:20.340Z,99407.72
2023-04-14T23:54:47.894Z,99407.72
2023-04-14T23:57:14.973Z,99407.88
2023-04-14T23:59:42.194Z,99420.44
